createdAt,value
2023-01-07T00:08:02.788Z,40.44
2023-01-07T00:18:35.646Z,40.34
2023-01-07T00:29:08.244Z,40.17
2023-01-07T00:40:04.237Z,39.95
2023-01-07T00:50:49.222Z,39.72
2023-01-07T01:01:19.643Z,40.01
2023-01-07T01:12:03.713Z,39.51
2023-01-07T01:22:49.131Z,39.38
2023-01-07T01:33:27.857Z,39.53
2023-01-07T01:44:16.381Z,39.82
2023-01-07T01:55:33.176Z,39.81
2023-01-07T02:06:32.366Z,39.7
2023-01-07T02:17:42.099Z,39.81
2023-01-07T02:28:59.121Z,39.68
2023-01-07T02:40:22.646Z,39.69
2023-01-07T02:51:36.631Z,39.83
2023-01-07T03:02:52.423Z,39.72
2023-01-07T03:14:08.113Z,39.98
2023-01-07T03:25:19.716Z,40.04
2023-01-07T03:36:12.075Z,40.19
2023-01-07T03:46:52.299Z,40.24
2023-01-07T03:57:18.651Z,40.36
2023-01-07T04:07:38.712Z,40.37
2023-01-07T04:18:00.504Z,40.3
2023-01-07T04:28:24.693Z,40.19
2023-01-07T04:38:56.264Z,40.35
2023-01-07T04:49:25.030Z,40.35
2023-01-07T04:59:54.274Z,40.11
2023-01-07T05:10:18.249Z,39.6
2023-01-07T05:21:01.938Z,37.79
2023-01-07T05:31:35.521Z,38.32
2023-01-07T05:42:11.540Z,38.73
2023-01-07T05:52:53.350Z,39.08
2023-01-07T06:03:31.564Z,39.32
2023-01-07T06:14:12.422Z,39.38
2023-01-07T06:24:51.581Z,39.55
2023-01-07T06:35:32.991Z,39.92
2023-01-07T06:46:13.861Z,39.47
2023-01-07T06:56:56.040Z,39.64
2023-01-07T07:07:34.279Z,39.45
2023-01-07T07:18:13.719Z,39.36
2023-01-07T07:28:46.738Z,39.51
2023-01-07T07:39:17.496Z,39.46
2023-01-07T07:49:52.251Z,39.78
2023-01-07T08:00:23.591Z,39.82
2023-01-07T08:10:34.657Z,39.37
2023-01-07T08:20:05.606Z,38.88
2023-01-07T08:29:33.918Z,38.7
2023-01-07T08:39:05.996Z,38.65
2023-01-07T08:48:40.748Z,38.67
2023-01-07T08:58:06.797Z,38.66
2023-01-07T09:07:36.491Z,38.52
2023-01-07T09:17:02.801Z,38.48
2023-01-07T09:26:28.126Z,38.47
2023-01-07T09:35:53.217Z,38.56
2023-01-07T09:45:37.287Z,38.7
2023-01-07T09:55:28.650Z,38.66
2023-01-07T10:05:19.147Z,38.58
2023-01-07T10:15:32.219Z,38.74
2023-01-07T10:25:43.982Z,38.81
2023-01-07T10:35:40.689Z,38.76
2023-01-07T10:45:44.846Z,39.03
2023-01-07T10:55:54.855Z,38.95
2023-01-07T11:05:48.339Z,38.95
2023-01-07T11:15:34.850Z,38.97
2023-01-07T11:25:26.760Z,38.87
2023-01-07T11:35:23.666Z,38.56
2023-01-07T11:45:12.452Z,38.67
2023-01-07T11:55:10.460Z,38.61
2023-01-07T12:05:11.415Z,38.51
2023-01-07T12:15:18.879Z,38.42
2023-01-07T12:25:29.396Z,37.93
2023-01-07T12:35:23.965Z,38.08
2023-01-07T12:45:20.471Z,37.9
2023-01-07T12:55:21.984Z,38.31
2023-01-07T13:05:25.441Z,38.46
2023-01-07T13:15:41.245Z,38.49
2023-01-07T13:25:17.109Z,38.44
2023-01-07T13:35:10.497Z,38.42
2023-01-07T13:45:12.340Z,38.47
2023-01-07T13:55:04.936Z,38.54
2023-01-07T14:05:03.616Z,38.78
2023-01-07T14:14:52.169Z,38.68
2023-01-07T14:24:59.226Z,38.49
2023-01-07T14:35:08.801Z,38.64
2023-01-07T14:45:11.942Z,38.76
2023-01-07T14:55:13.567Z,38.75
2023-01-07T15:05:17.718Z,38.82
2023-01-07T15:15:17.724Z,38.58
2023-01-07T15:25:06.003Z,38.63
2023-01-07T15:35:23.130Z,38.61
2023-01-07T15:45:26.279Z,38.57
2023-01-07T15:55:19.534Z,38.14
2023-01-07T16:05:17.537Z,38.37
2023-01-07T16:15:16.986Z,38.48
2023-01-07T16:25:01.143Z,38.59
2023-01-07T16:34:42.951Z,38.5
2023-01-07T16:44:32.112Z,38.56
2023-01-07T16:54:20.255Z,38.49
2023-01-07T17:04:08.311Z,38.62
2023-01-07T17:14:09.791Z,38.31
2023-01-07T17:24:10.151Z,38.29
2023-01-07T17:34:01.596Z,38.56
2023-01-07T17:43:33.802Z,38.61
2023-01-07T17:53:04.869Z,38.52
2023-01-07T18:02:48.020Z,38.47
2023-01-07T18:12:21.693Z,38.52
2023-01-07T18:21:53.647Z,38.49
2023-01-07T18:31:22.997Z,38.56
2023-01-07T18:40:49.408Z,38.51
2023-01-07T18:50:19.205Z,38.16
2023-01-07T18:59:49.536Z,38.09
2023-01-07T19:09:17.531Z,38.18
2023-01-07T19:18:42.295Z,38.3
2023-01-07T19:28:08.946Z,38.34
2023-01-07T19:37:37.838Z,38.29
2023-01-07T19:47:11.761Z,38.37
2023-01-07T19:56:39.014Z,38.4
2023-01-07T20:06:04.744Z,38.33
2023-01-07T20:15:40.673Z,38.43
2023-01-07T20:25:08.965Z,38.46
2023-01-07T20:34:41.601Z,38.44
2023-01-07T20:44:05.612Z,38.47
2023-01-07T20:53:33.104Z,38.45
2023-01-07T21:03:02.096Z,38.48
2023-01-07T21:12:32.433Z,38.51
2023-01-07T21:21:52.647Z,38.63
2023-01-07T21:31:16.688Z,38.61
2023-01-07T21:40:49.809Z,38.64
2023-01-07T21:50:12.415Z,38.62
2023-01-07T21:59:40.971Z,38.72
2023-01-07T22:09:08.640Z,38.66
2023-01-07T22:18:41.928Z,38.65
2023-01-07T22:28:04.760Z,38.66
2023-01-07T22:37:28.816Z,38.78
2023-01-07T22:47:11.876Z,38.74
2023-01-07T22:56:47.830Z,38.67
2023-01-07T23:06:13.890Z,38.75
2023-01-07T23:15:36.669Z,38.7
2023-01-07T23:25:01.149Z,38.75
2023-01-07T23:34:31.882Z,38.68
2023-01-07T23:43:57.509Z,38.71
2023-01-07T23:53:23.211Z,38.84
